sensor_id;sensor_type;location;lat;lon;timestamp;temperature;humidity
42095;DHT22;27753;55.724;37.612;2024-03-08T00:01:13;-2.90;90.20
42095;DHT22;27753;55.724;37.612;2024-03-08T00:03:39;-2.90;90.20
42095;DHT22;27753;55.724;37.612;2024-03-08T00:06:06;-2.90;90.20
42095;DHT22;27753;55.724;37.612;2024-03-08T00:08:35;-3.00;90.20
42095;DHT22;27753;55.724;37.612;2024-03-08T00:11:01;-3.00;90.20
42095;DHT22;27753;55.724;37.612;2024-03-08T00:13:27;-3.00;90.30
42095;DHT22;27753;55.724;37.612;2024-03-08T00:15:53;-3.00;90.30
42095;DHT22;27753;55.724;37.612;2024-03-08T00:18:19;-3.10;90.40
42095;DHT22;27753;55.724;37.612;2024-03-08T00:20:45;-3.10;90.50
42095;DHT22;27753;55.724;37.612;2024-03-08T00:23:11;-3.10;90.60
42095;DHT22;27753;55.724;37.612;2024-03-08T00:25:37;-3.10;90.50
42095;DHT22;27753;55.724;37.612;2024-03-08T00:28:04;-3.10;90.50
42095;DHT22;27753;55.724;37.612;2024-03-08T00:30:32;-3.10;90.50
42095;DHT22;27753;55.724;37.612;2024-03-08T00:32:58;-3.10;90.40
42095;DHT22;27753;55.724;37.612;2024-03-08T00:35:24;-3.20;90.40
42095;DHT22;27753;55.724;37.612;2024-03-08T00:37:49;-3.20;90.50
42095;DHT22;27753;55.724;37.612;2024-03-08T00:40:16;-3.20;90.40
42095;DHT22;27753;55.724;37.612;2024-03-08T00:42:41;-3.20;90.40
42095;DHT22;27753;55.724;37.612;2024-03-08T00:45:10;-3.20;90.40
42095;DHT22;27753;55.724;37.612;2024-03-08T00:47:36;-3.30;90.40
42095;DHT22;27753;55.724;37.612;2024-03-08T00:50:02;-3.30;90.40
42095;DHT22;27753;55.724;37.612;2024-03-08T00:52:29;-3.30;90.60
42095;DHT22;27753;55.724;37.612;2024-03-08T00:54:55;-3.30;90.60
42095;DHT22;27753;55.724;37.612;2024-03-08T00:57:21;-3.30;90.50
42095;DHT22;27753;55.724;37.612;2024-03-08T00:59:47;-3.20;90.60
42095;DHT22;27753;55.724;37.612;2024-03-08T01:02:13;-3.10;90.60
42095;DHT22;27753;55.724;37.612;2024-03-08T01:04:39;-3.00;90.60
42095;DHT22;27753;55.724;37.612;2024-03-08T01:07:05;-2.90;90.50
42095;DHT22;27753;55.724;37.612;2024-03-08T01:09:31;-2.80;90.30
42095;DHT22;27753;55.724;37.612;2024-03-08T01:11:58;-2.80;90.20
42095;DHT22;27753;55.724;37.612;2024-03-08T01:14:24;-2.80;90.10
42095;DHT22;27753;55.724;37.612;2024-03-08T01:16:54;-2.80;90.10
42095;DHT22;27753;55.724;37.612;2024-03-08T01:19:20;-2.80;90.00
42095;DHT22;27753;55.724;37.612;2024-03-08T01:21:46;-2.90;89.90
42095;DHT22;27753;55.724;37.612;2024-03-08T01:24:12;-2.90;90.00
42095;DHT22;27753;55.724;37.612;2024-03-08T01:26:38;-3.00;90.10
42095;DHT22;27753;55.724;37.612;2024-03-08T01:29:04;-3.00;90.10
42095;DHT22;27753;55.724;37.612;2024-03-08T01:31:30;-3.10;90.20
42095;DHT22;27753;55.724;37.612;2024-03-08T01:33:57;-3.10;90.20
42095;DHT22;27753;55.724;37.612;2024-03-08T01:36:23;-3.10;90.30
42095;DHT22;27753;55.724;37.612;2024-03-08T01:38:50;-3.10;90.40
42095;DHT22;27753;55.724;37.612;2024-03-08T01:41:17;-3.00;90.50
42095;DHT22;27753;55.724;37.612;2024-03-08T01:43:44;-3.00;90.40
42095;DHT22;27753;55.724;37.612;2024-03-08T01:46:12;-2.90;90.30
42095;DHT22;27753;55.724;37.612;2024-03-08T01:48:41;-2.90;90.30
42095;DHT22;27753;55.724;37.612;2024-03-08T01:51:07;-2.80;90.30
42095;DHT22;27753;55.724;37.612;2024-03-08T01:53:34;-2.80;90.20
42095;DHT22;27753;55.724;37.612;2024-03-08T01:56:02;-2.80;90.10
42095;DHT22;27753;55.724;37.612;2024-03-08T01:58:29;-2.90;90.00
42095;DHT22;27753;55.724;37.612;2024-03-08T02:00:56;-3.00;90.10
42095;DHT22;27753;55.724;37.612;2024-03-08T02:03:23;-3.10;90.30
42095;DHT22;27753;55.724;37.612;2024-03-08T02:05:49;-3.30;90.40
42095;DHT22;27753;55.724;37.612;2024-03-08T02:08:18;-3.30;90.50
42095;DHT22;27753;55.724;37.612;2024-03-08T02:10:45;-3.40;90.60
42095;DHT22;27753;55.724;37.612;2024-03-08T02:13:11;-3.40;90.70
42095;DHT22;27753;55.724;37.612;2024-03-08T02:15:57;-3.50;90.80
42095;DHT22;27753;55.724;37.612;2024-03-08T02:18:27;-3.50;90.90
42095;DHT22;27753;55.724;37.612;2024-03-08T02:20:56;-3.60;91.00
42095;DHT22;27753;55.724;37.612;2024-03-08T02:23:23;-3.60;91.10
42095;DHT22;27753;55.724;37.612;2024-03-08T02:25:50;-3.70;91.20
42095;DHT22;27753;55.724;37.612;2024-03-08T02:28:16;-3.70;91.30
42095;DHT22;27753;55.724;37.612;2024-03-08T02:30:51;-3.70;91.30
42095;DHT22;27753;55.724;37.612;2024-03-08T02:33:20;-3.80;91.30
42095;DHT22;27753;55.724;37.612;2024-03-08T02:35:46;-3.80;91.40
42095;DHT22;27753;55.724;37.612;2024-03-08T02:38:16;-3.80;91.60
42095;DHT22;27753;55.724;37.612;2024-03-08T02:40:43;-3.80;91.80
42095;DHT22;27753;55.724;37.612;2024-03-08T02:43:13;-3.90;91.90
42095;DHT22;27753;55.724;37.612;2024-03-08T02:45:40;-3.90;92.10
42095;DHT22;27753;55.724;37.612;2024-03-08T02:48:07;-3.80;92.20
42095;DHT22;27753;55.724;37.612;2024-03-08T02:50:33;-3.80;92.20
42095;DHT22;27753;55.724;37.612;2024-03-08T02:53:01;-3.70;92.30
42095;DHT22;27753;55.724;37.612;2024-03-08T02:55:26;-3.70;92.30
42095;DHT22;27753;55.724;37.612;2024-03-08T02:57:52;-3.60;92.20
42095;DHT22;27753;55.724;37.612;2024-03-08T03:00:22;-3.60;92.00
42095;DHT22;27753;55.724;37.612;2024-03-08T03:02:52;-3.70;92.00
42095;DHT22;27753;55.724;37.612;2024-03-08T03:05:22;-3.80;92.00
42095;DHT22;27753;55.724;37.612;2024-03-08T03:07:48;-3.90;92.10
42095;DHT22;27753;55.724;37.612;2024-03-08T03:10:17;-4.00;92.30
42095;DHT22;27753;55.724;37.612;2024-03-08T03:12:44;-4.00;92.50
42095;DHT22;27753;55.724;37.612;2024-03-08T03:15:12;-4.10;92.60
42095;DHT22;27753;55.724;37.612;2024-03-08T03:17:39;-4.20;92.80
42095;DHT22;27753;55.724;37.612;2024-03-08T03:20:07;-4.20;92.90
42095;DHT22;27753;55.724;37.612;2024-03-08T03:22:38;-4.20;93.10
42095;DHT22;27753;55.724;37.612;2024-03-08T03:25:04;-4.20;93.20
42095;DHT22;27753;55.724;37.612;2024-03-08T03:27:32;-4.30;93.30
42095;DHT22;27753;55.724;37.612;2024-03-08T03:29:58;-4.30;93.40
42095;DHT22;27753;55.724;37.612;2024-03-08T03:32:24;-4.30;93.50
42095;DHT22;27753;55.724;37.612;2024-03-08T03:34:49;-4.30;93.70
42095;DHT22;27753;55.724;37.612;2024-03-08T03:37:19;-4.40;93.80
42095;DHT22;27753;55.724;37.612;2024-03-08T03:39:45;-4.30;93.90
42095;DHT22;27753;55.724;37.612;2024-03-08T03:42:18;-4.30;94.00
42095;DHT22;27753;55.724;37.612;2024-03-08T03:44:48;-4.30;94.00
42095;DHT22;27753;55.724;37.612;2024-03-08T03:47:15;-4.30;94.00
42095;DHT22;27753;55.724;37.612;2024-03-08T03:49:41;-4.20;94.10
42095;DHT22;27753;55.724;37.612;2024-03-08T03:52:08;-4.20;94.00
42095;DHT22;27753;55.724;37.612;2024-03-08T03:54:34;-4.10;93.90
42095;DHT22;27753;55.724;37.612;2024-03-08T03:57:00;-4.10;93.80
42095;DHT22;27753;55.724;37.612;2024-03-08T03:59:29;-4.10;93.90
42095;DHT22;27753;55.724;37.612;2024-03-08T04:01:55;-4.10;93.80
42095;DHT22;27753;55.724;37.612;2024-03-08T04:04:21;-4.20;93.90
42095;DHT22;27753;55.724;37.612;2024-03-08T04:06:47;-4.20;94.00
42095;DHT22;27753;55.724;37.612;2024-03-08T04:09:13;-4.20;94.00
42095;DHT22;27753;55.724;37.612;2024-03-08T04:11:39;-4.30;94.10
42095;DHT22;27753;55.724;37.612;2024-03-08T04:14:06;-4.30;94.30
42095;DHT22;27753;55.724;37.612;2024-03-08T04:16:32;-4.20;94.30
42095;DHT22;27753;55.724;37.612;2024-03-08T04:18:59;-4.20;94.30
42095;DHT22;27753;55.724;37.612;2024-03-08T04:21:25;-4.10;94.40
42095;DHT22;27753;55.724;37.612;2024-03-08T04:23:50;-4.10;94.30
42095;DHT22;27753;55.724;37.612;2024-03-08T04:26:16;-4.10;94.20
42095;DHT22;27753;55.724;37.612;2024-03-08T04:28:42;-4.10;94.40
42095;DHT22;27753;55.724;37.612;2024-03-08T04:31:08;-4.10;94.40
42095;DHT22;27753;55.724;37.612;2024-03-08T04:33:33;-4.00;94.40
42095;DHT22;27753;55.724;37.612;2024-03-08T04:36:02;-4.00;94.40
42095;DHT22;27753;55.724;37.612;2024-03-08T04:38:31;-3.90;94.40
42095;DHT22;27753;55.724;37.612;2024-03-08T04:40:57;-3.90;94.40
42095;DHT22;27753;55.724;37.612;2024-03-08T04:43:23;-3.90;94.40
42095;DHT22;27753;55.724;37.612;2024-03-08T04:45:52;-3.90;94.40
42095;DHT22;27753;55.724;37.612;2024-03-08T04:48:19;-3.90;94.40
42095;DHT22;27753;55.724;37.612;2024-03-08T04:50:46;-3.80;94.40
42095;DHT22;27753;55.724;37.612;2024-03-08T04:53:12;-3.90;94.40
42095;DHT22;27753;55.724;37.612;2024-03-08T04:55:37;-3.90;94.80
42095;DHT22;27753;55.724;37.612;2024-03-08T04:58:03;-3.90;94.60
42095;DHT22;27753;55.724;37.612;2024-03-08T05:00:32;-3.90;94.50
42095;DHT22;27753;55.724;37.612;2024-03-08T05:02:58;-3.90;94.70
42095;DHT22;27753;55.724;37.612;2024-03-08T05:05:24;-3.80;94.70
42095;DHT22;27753;55.724;37.612;2024-03-08T05:07:51;-3.80;94.80
42095;DHT22;27753;55.724;37.612;2024-03-08T05:10:17;-3.90;94.90
42095;DHT22;27753;55.724;37.612;2024-03-08T05:12:44;-3.90;95.10
42095;DHT22;27753;55.724;37.612;2024-03-08T05:15:10;-3.90;95.20
42095;DHT22;27753;55.724;37.612;2024-03-08T05:17:36;-3.90;95.30
42095;DHT22;27753;55.724;37.612;2024-03-08T05:20:02;-3.90;95.40
42095;DHT22;27753;55.724;37.612;2024-03-08T05:22:29;-3.90;95.60
42095;DHT22;27753;55.724;37.612;2024-03-08T05:24:55;-3.80;95.60
42095;DHT22;27753;55.724;37.612;2024-03-08T05:27:21;-3.80;95.60
42095;DHT22;27753;55.724;37.612;2024-03-08T05:29:46;-3.70;95.50
42095;DHT22;27753;55.724;37.612;2024-03-08T05:32:13;-3.70;95.50
42095;DHT22;27753;55.724;37.612;2024-03-08T05:34:39;-3.70;95.70
42095;DHT22;27753;55.724;37.612;2024-03-08T05:37:05;-3.70;96.00
42095;DHT22;27753;55.724;37.612;2024-03-08T05:39:33;-3.60;95.80
42095;DHT22;27753;55.724;37.612;2024-03-08T05:41:58;-3.60;95.80
42095;DHT22;27753;55.724;37.612;2024-03-08T05:44:24;-3.60;95.70
42095;DHT22;27753;55.724;37.612;2024-03-08T05:46:50;-3.60;95.70
42095;DHT22;27753;55.724;37.612;2024-03-08T05:49:16;-3.60;95.70
42095;DHT22;27753;55.724;37.612;2024-03-08T05:51:42;-3.70;95.90
42095;DHT22;27753;55.724;37.612;2024-03-08T05:54:10;-3.70;95.90
42095;DHT22;27753;55.724;37.612;2024-03-08T05:56:37;-3.60;96.00
42095;DHT22;27753;55.724;37.612;2024-03-08T05:59:04;-3.60;96.10
42095;DHT22;27753;55.724;37.612;2024-03-08T06:01:30;-3.50;96.10
42095;DHT22;27753;55.724;37.612;2024-03-08T06:03:56;-3.50;96.00
42095;DHT22;27753;55.724;37.612;2024-03-08T06:06:23;-3.40;96.10
42095;DHT22;27753;55.724;37.612;2024-03-08T06:08:50;-3.40;96.10
42095;DHT22;27753;55.724;37.612;2024-03-08T06:11:18;-3.30;96.10
42095;DHT22;27753;55.724;37.612;2024-03-08T06:13:45;-3.30;96.00
42095;DHT22;27753;55.724;37.612;2024-03-08T06:16:11;-3.30;96.00
42095;DHT22;27753;55.724;37.612;2024-03-08T06:18:37;-3.30;96.00
42095;DHT22;27753;55.724;37.612;2024-03-08T06:21:06;-3.10;96.10
42095;DHT22;27753;55.724;37.612;2024-03-08T06:23:33;-3.10;95.90
42095;DHT22;27753;55.724;37.612;2024-03-08T06:25:59;-3.10;95.70
42095;DHT22;27753;55.724;37.612;2024-03-08T06:28:24;-3.10;95.70
42095;DHT22;27753;55.724;37.612;2024-03-08T06:30:51;-3.10;95.60
42095;DHT22;27753;55.724;37.612;2024-03-08T06:33:17;-3.00;95.60
42095;DHT22;27753;55.724;37.612;2024-03-08T06:35:43;-3.10;95.60
42095;DHT22;27753;55.724;37.612;2024-03-08T06:38:09;-3.10;95.60
42095;DHT22;27753;55.724;37.612;2024-03-08T06:40:37;-3.00;95.70
42095;DHT22;27753;55.724;37.612;2024-03-08T06:43:03;-3.00;95.60
42095;DHT22;27753;55.724;37.612;2024-03-08T06:45:31;-2.90;95.50
42095;DHT22;27753;55.724;37.612;2024-03-08T06:47:57;-2.90;95.40
42095;DHT22;27753;55.724;37.612;2024-03-08T06:50:23;-2.90;95.30
42095;DHT22;27753;55.724;37.612;2024-03-08T06:52:49;-2.90;95.30
42095;DHT22;27753;55.724;37.612;2024-03-08T06:55:19;-2.90;95.40
42095;DHT22;27753;55.724;37.612;2024-03-08T06:57:45;-2.90;95.40
42095;DHT22;27753;55.724;37.612;2024-03-08T07:00:11;-2.80;95.40
42095;DHT22;27753;55.724;37.612;2024-03-08T07:02:46;-2.70;95.40
42095;DHT22;27753;55.724;37.612;2024-03-08T07:05:14;-2.60;95.30
42095;DHT22;27753;55.724;37.612;2024-03-08T07:07:42;-2.60;95.00
42095;DHT22;27753;55.724;37.612;2024-03-08T07:10:09;-2.50;94.90
42095;DHT22;27753;55.724;37.612;2024-03-08T07:12:41;-2.50;95.00
42095;DHT22;27753;55.724;37.612;2024-03-08T07:15:08;-2.40;95.00
42095;DHT22;27753;55.724;37.612;2024-03-08T07:17:39;-2.50;94.80
42095;DHT22;27753;55.724;37.612;2024-03-08T07:20:06;-2.50;95.00
42095;DHT22;27753;55.724;37.612;2024-03-08T07:22:37;-2.40;94.90
42095;DHT22;27753;55.724;37.612;2024-03-08T07:25:07;-2.40;94.80
42095;DHT22;27753;55.724;37.612;2024-03-08T07:27:34;-2.30;95.00
42095;DHT22;27753;55.724;37.612;2024-03-08T07:30:04;-2.10;94.90
42095;DHT22;27753;55.724;37.612;2024-03-08T07:32:30;-2.00;94.60
42095;DHT22;27753;55.724;37.612;2024-03-08T07:34:57;-2.10;94.30
42095;DHT22;27753;55.724;37.612;2024-03-08T07:37:24;-2.10;94.30
42095;DHT22;27753;55.724;37.612;2024-03-08T07:39:50;-2.10;94.20
42095;DHT22;27753;55.724;37.612;2024-03-08T07:42:16;-2.10;94.30
42095;DHT22;27753;55.724;37.612;2024-03-08T07:44:42;-2.10;94.30
42095;DHT22;27753;55.724;37.612;2024-03-08T07:47:08;-2.00;94.20
42095;DHT22;27753;55.724;37.612;2024-03-08T07:49:38;-1.90;94.00
42095;DHT22;27753;55.724;37.612;2024-03-08T07:52:04;-1.90;93.90
42095;DHT22;27753;55.724;37.612;2024-03-08T07:54:33;-1.90;93.80
42095;DHT22;27753;55.724;37.612;2024-03-08T07:57:00;-1.80;93.70
42095;DHT22;27753;55.724;37.612;2024-03-08T07:59:28;-1.90;93.70
42095;DHT22;27753;55.724;37.612;2024-03-08T08:01:56;-1.80;93.90
42095;DHT22;27753;55.724;37.612;2024-03-08T08:04:21;-1.60;93.80
42095;DHT22;27753;55.724;37.612;2024-03-08T08:06:50;-1.40;93.60
42095;DHT22;27753;55.724;37.612;2024-03-08T08:09:17;-1.30;93.30
42095;DHT22;27753;55.724;37.612;2024-03-08T08:11:54;-1.10;93.10
42095;DHT22;27753;55.724;37.612;2024-03-08T08:14:20;-1.00;92.90
42095;DHT22;27753;55.724;37.612;2024-03-08T08:16:47;-1.00;92.60
42095;DHT22;27753;55.724;37.612;2024-03-08T08:19:14;-1.10;92.50
42095;DHT22;27753;55.724;37.612;2024-03-08T08:21:41;-1.20;92.80
42095;DHT22;27753;55.724;37.612;2024-03-08T08:24:07;-1.10;92.90
42095;DHT22;27753;55.724;37.612;2024-03-08T08:26:33;-1.00;92.70
42095;DHT22;27753;55.724;37.612;2024-03-08T08:28:59;-0.90;92.50
42095;DHT22;27753;55.724;37.612;2024-03-08T08:31:25;-0.90;92.30
42095;DHT22;27753;55.724;37.612;2024-03-08T08:33:51;-0.90;92.30
42095;DHT22;27753;55.724;37.612;2024-03-08T08:36:25;-0.80;92.50
42095;DHT22;27753;55.724;37.612;2024-03-08T08:38:51;-0.60;92.20
42095;DHT22;27753;55.724;37.612;2024-03-08T08:41:20;-0.30;92.10
42095;DHT22;27753;55.724;37.612;2024-03-08T08:43:47;0.10;92.00
42095;DHT22;27753;55.724;37.612;2024-03-08T08:46:18;0.10;91.30
42095;DHT22;27753;55.724;37.612;2024-03-08T08:48:44;0.10;91.10
42095;DHT22;27753;55.724;37.612;2024-03-08T08:51:11;0.10;91.10
42095;DHT22;27753;55.724;37.612;2024-03-08T08:53:41;0.00;91.00
42095;DHT22;27753;55.724;37.612;2024-03-08T08:56:11;-0.20;91.20
42095;DHT22;27753;55.724;37.612;2024-03-08T08:58:47;-0.20;91.50
42095;DHT22;27753;55.724;37.612;2024-03-08T09:01:14;-0.30;91.50
42095;DHT22;27753;55.724;37.612;2024-03-08T09:03:40;-0.40;91.70
42095;DHT22;27753;55.724;37.612;2024-03-08T09:06:07;-0.40;91.80
42095;DHT22;27753;55.724;37.612;2024-03-08T09:08:36;-0.30;91.90
42095;DHT22;27753;55.724;37.612;2024-03-08T09:11:03;-0.40;91.90
42095;DHT22;27753;55.724;37.612;2024-03-08T09:13:29;-0.20;92.10
42095;DHT22;27753;55.724;37.612;2024-03-08T09:15:56;-0.10;91.90
42095;DHT22;27753;55.724;37.612;2024-03-08T09:18:22;0.10;92.00
42095;DHT22;27753;55.724;37.612;2024-03-08T09:20:49;0.30;91.80
42095;DHT22;27753;55.724;37.612;2024-03-08T09:23:19;0.50;91.60
42095;DHT22;27753;55.724;37.612;2024-03-08T09:25:45;0.70;91.10
42095;DHT22;27753;55.724;37.612;2024-03-08T09:28:12;0.80;90.90
42095;DHT22;27753;55.724;37.612;2024-03-08T09:30:38;0.80;90.80
42095;DHT22;27753;55.724;37.612;2024-03-08T09:33:05;1.00;90.80
42095;DHT22;27753;55.724;37.612;2024-03-08T09:35:32;1.10;90.70
42095;DHT22;27753;55.724;37.612;2024-03-08T09:38:00;1.40;90.40
42095;DHT22;27753;55.724;37.612;2024-03-08T09:40:26;1.60;89.90
42095;DHT22;27753;55.724;37.612;2024-03-08T09:42:52;1.40;88.90
42095;DHT22;27753;55.724;37.612;2024-03-08T09:45:20;1.10;89.90
42095;DHT22;27753;55.724;37.612;2024-03-08T09:47:50;0.90;90.20
42095;DHT22;27753;55.724;37.612;2024-03-08T09:50:16;0.80;90.30
42095;DHT22;27753;55.724;37.612;2024-03-08T09:52:44;0.60;90.50
42095;DHT22;27753;55.724;37.612;2024-03-08T09:55:12;0.50;90.90
42095;DHT22;27753;55.724;37.612;2024-03-08T09:57:38;0.50;91.10
42095;DHT22;27753;55.724;37.612;2024-03-08T10:00:05;0.50;91.20
42095;DHT22;27753;55.724;37.612;2024-03-08T10:02:46;0.50;91.10
42095;DHT22;27753;55.724;37.612;2024-03-08T10:05:13;0.50;91.20
42095;DHT22;27753;55.724;37.612;2024-03-08T10:07:39;0.50;91.20
42095;DHT22;27753;55.724;37.612;2024-03-08T10:10:06;0.50;91.30
42095;DHT22;27753;55.724;37.612;2024-03-08T10:12:34;0.50;91.20
42095;DHT22;27753;55.724;37.612;2024-03-08T10:15:00;0.60;91.20
42095;DHT22;27753;55.724;37.612;2024-03-08T10:17:26;0.50;91.30
42095;DHT22;27753;55.724;37.612;2024-03-08T10:19:58;0.50;91.40
42095;DHT22;27753;55.724;37.612;2024-03-08T10:22:25;0.60;91.50
42095;DHT22;27753;55.724;37.612;2024-03-08T10:24:55;0.70;91.40
42095;DHT22;27753;55.724;37.612;2024-03-08T10:27:21;0.80;91.70
42095;DHT22;27753;55.724;37.612;2024-03-08T10:29:50;0.90;91.20
42095;DHT22;27753;55.724;37.612;2024-03-08T10:32:17;1.00;91.00
42095;DHT22;27753;55.724;37.612;2024-03-08T10:34:43;0.90;91.10
42095;DHT22;27753;55.724;37.612;2024-03-08T10:37:15;0.90;91.10
42095;DHT22;27753;55.724;37.612;2024-03-08T10:39:48;0.90;91.00
42095;DHT22;27753;55.724;37.612;2024-03-08T10:42:22;0.90;91.20
42095;DHT22;27753;55.724;37.612;2024-03-08T10:45:15;0.90;91.20
42095;DHT22;27753;55.724;37.612;2024-03-08T10:47:41;0.90;91.20
42095;DHT22;27753;55.724;37.612;2024-03-08T10:50:19;0.80;91.20
42095;DHT22;27753;55.724;37.612;2024-03-08T10:52:51;0.70;91.50
42095;DHT22;27753;55.724;37.612;2024-03-08T10:55:19;0.60;91.60
42095;DHT22;27753;55.724;37.612;2024-03-08T10:57:46;0.50;91.70
42095;DHT22;27753;55.724;37.612;2024-03-08T11:00:20;0.50;91.90
42095;DHT22;27753;55.724;37.612;2024-03-08T11:02:53;0.50;92.00
42095;DHT22;27753;55.724;37.612;2024-03-08T11:05:39;0.50;92.20
42095;DHT22;27753;55.724;37.612;2024-03-08T11:08:19;0.60;92.30
42095;DHT22;27753;55.724;37.612;2024-03-08T11:10:54;0.70;92.10
42095;DHT22;27753;55.724;37.612;2024-03-08T11:13:34;0.80;92.10
42095;DHT22;27753;55.724;37.612;2024-03-08T11:16:36;0.90;91.80
42095;DHT22;27753;55.724;37.612;2024-03-08T11:18:59;1.00;91.70
42095;DHT22;27753;55.724;37.612;2024-03-08T11:21:32;1.00;91.50
42095;DHT22;27753;55.724;37.612;2024-03-08T11:24:02;1.10;91.40
42095;DHT22;27753;55.724;37.612;2024-03-08T11:26:31;1.00;91.40
42095;DHT22;27753;55.724;37.612;2024-03-08T11:32:08;1.10;91.50
42095;DHT22;27753;55.724;37.612;2024-03-08T11:34:39;1.10;91.30
42095;DHT22;27753;55.724;37.612;2024-03-08T11:37:11;1.10;91.50
42095;DHT22;27753;55.724;37.612;2024-03-08T11:39:39;1.10;91.60
42095;DHT22;27753;55.724;37.612;2024-03-08T11:42:05;1.30;91.20
42095;DHT22;27753;55.724;37.612;2024-03-08T11:44:32;1.30;90.90
42095;DHT22;27753;55.724;37.612;2024-03-08T11:46:58;1.30;91.10
42095;DHT22;27753;55.724;37.612;2024-03-08T11:49:26;1.40;91.00
42095;DHT22;27753;55.724;37.612;2024-03-08T11:51:53;1.50;90.80
42095;DHT22;27753;55.724;37.612;2024-03-08T11:54:19;1.60;90.90
42095;DHT22;27753;55.724;37.612;2024-03-08T11:56:45;1.80;90.60
42095;DHT22;27753;55.724;37.612;2024-03-08T11:59:14;1.90;90.40
42095;DHT22;27753;55.724;37.612;2024-03-08T12:01:40;1.90;90.20
42095;DHT22;27753;55.724;37.612;2024-03-08T12:04:06;1.90;90.10
42095;DHT22;27753;55.724;37.612;2024-03-08T12:06:40;1.80;89.70
42095;DHT22;27753;55.724;37.612;2024-03-08T12:09:10;1.70;90.10
42095;DHT22;27753;55.724;37.612;2024-03-08T12:11:37;1.80;90.30
42095;DHT22;27753;55.724;37.612;2024-03-08T12:14:03;1.80;90.10
42095;DHT22;27753;55.724;37.612;2024-03-08T12:16:29;1.80;90.00
42095;DHT22;27753;55.724;37.612;2024-03-08T12:18:56;1.80;90.10
42095;DHT22;27753;55.724;37.612;2024-03-08T12:21:23;2.00;90.00
42095;DHT22;27753;55.724;37.612;2024-03-08T12:24:06;2.00;89.50
42095;DHT22;27753;55.724;37.612;2024-03-08T12:26:39;2.00;89.30
42095;DHT22;27753;55.724;37.612;2024-03-08T12:29:15;1.90;89.20
42095;DHT22;27753;55.724;37.612;2024-03-08T12:31:46;1.80;89.50
42095;DHT22;27753;55.724;37.612;2024-03-08T12:34:13;1.80;89.80
42095;DHT22;27753;55.724;37.612;2024-03-08T12:36:49;1.80;89.40
42095;DHT22;27753;55.724;37.612;2024-03-08T12:39:17;1.70;89.80
42095;DHT22;27753;55.724;37.612;2024-03-08T12:41:47;1.60;90.00
42095;DHT22;27753;55.724;37.612;2024-03-08T12:44:13;1.60;89.80
42095;DHT22;27753;55.724;37.612;2024-03-08T12:46:39;1.60;90.00
42095;DHT22;27753;55.724;37.612;2024-03-08T12:49:10;1.60;89.90
42095;DHT22;27753;55.724;37.612;2024-03-08T12:51:38;1.50;89.20
42095;DHT22;27753;55.724;37.612;2024-03-08T12:54:05;1.40;88.80
42095;DHT22;27753;55.724;37.612;2024-03-08T12:56:33;1.30;89.20
42095;DHT22;27753;55.724;37.612;2024-03-08T12:59:00;1.20;89.50
42095;DHT22;27753;55.724;37.612;2024-03-08T13:01:27;1.20;89.80
42095;DHT22;27753;55.724;37.612;2024-03-08T13:03:53;1.30;90.10
42095;DHT22;27753;55.724;37.612;2024-03-08T13:06:21;1.50;89.50
42095;DHT22;27753;55.724;37.612;2024-03-08T13:08:53;1.60;88.70
42095;DHT22;27753;55.724;37.612;2024-03-08T13:11:19;1.70;88.30
42095;DHT22;27753;55.724;37.612;2024-03-08T13:13:46;1.70;88.30
42095;DHT22;27753;55.724;37.612;2024-03-08T13:16:12;1.70;87.80
42095;DHT22;27753;55.724;37.612;2024-03-08T13:18:41;1.60;87.60
42095;DHT22;27753;55.724;37.612;2024-03-08T13:21:12;1.50;87.50
42095;DHT22;27753;55.724;37.612;2024-03-08T13:23:41;1.50;88.00
42095;DHT22;27753;55.724;37.612;2024-03-08T13:26:12;1.40;88.20
42095;DHT22;27753;55.724;37.612;2024-03-08T13:28:41;1.30;88.40
42095;DHT22;27753;55.724;37.612;2024-03-08T13:31:07;1.30;88.30
42095;DHT22;27753;55.724;37.612;2024-03-08T13:33:35;1.20;88.10
42095;DHT22;27753;55.724;37.612;2024-03-08T13:36:11;1.20;88.20
42095;DHT22;27753;55.724;37.612;2024-03-08T13:38:47;1.20;88.30
42095;DHT22;27753;55.724;37.612;2024-03-08T13:41:17;1.20;88.70
42095;DHT22;27753;55.724;37.612;2024-03-08T13:43:47;1.20;88.90
42095;DHT22;27753;55.724;37.612;2024-03-08T13:46:16;1.20;88.70
42095;DHT22;27753;55.724;37.612;2024-03-08T13:48:42;1.20;88.70
42095;DHT22;27753;55.724;37.612;2024-03-08T13:51:09;1.20;88.70
42095;DHT22;27753;55.724;37.612;2024-03-08T13:53:41;1.10;88.70
42095;DHT22;27753;55.724;37.612;2024-03-08T13:56:07;1.00;89.10
42095;DHT22;27753;55.724;37.612;2024-03-08T13:58:36;0.90;89.60
42095;DHT22;27753;55.724;37.612;2024-03-08T14:01:02;0.80;90.00
42095;DHT22;27753;55.724;37.612;2024-03-08T14:03:31;0.80;90.10
42095;DHT22;27753;55.724;37.612;2024-03-08T14:05:58;0.70;90.20
42095;DHT22;27753;55.724;37.612;2024-03-08T14:08:24;0.70;90.30
42095;DHT22;27753;55.724;37.612;2024-03-08T14:10:52;0.70;90.30
42095;DHT22;27753;55.724;37.612;2024-03-08T14:13:21;0.70;90.30
42095;DHT22;27753;55.724;37.612;2024-03-08T14:15:47;0.80;90.40
42095;DHT22;27753;55.724;37.612;2024-03-08T14:18:13;0.80;90.30
42095;DHT22;27753;55.724;37.612;2024-03-08T14:20:40;0.90;90.20
42095;DHT22;27753;55.724;37.612;2024-03-08T14:23:06;1.00;90.20
42095;DHT22;27753;55.724;37.612;2024-03-08T14:25:34;1.00;90.10
42095;DHT22;27753;55.724;37.612;2024-03-08T14:28:00;1.10;90.10
42095;DHT22;27753;55.724;37.612;2024-03-08T14:30:33;1.10;90.10
42095;DHT22;27753;55.724;37.612;2024-03-08T14:33:05;1.10;90.10
42095;DHT22;27753;55.724;37.612;2024-03-08T14:35:31;1.10;90.00
42095;DHT22;27753;55.724;37.612;2024-03-08T14:37:57;1.10;90.00
42095;DHT22;27753;55.724;37.612;2024-03-08T14:40:26;1.10;90.10
42095;DHT22;27753;55.724;37.612;2024-03-08T14:42:55;1.10;90.10
42095;DHT22;27753;55.724;37.612;2024-03-08T14:45:21;1.10;90.20
42095;DHT22;27753;55.724;37.612;2024-03-08T14:47:52;1.10;90.20
42095;DHT22;27753;55.724;37.612;2024-03-08T14:50:21;1.10;90.30
42095;DHT22;27753;55.724;37.612;2024-03-08T14:52:51;1.00;90.40
42095;DHT22;27753;55.724;37.612;2024-03-08T14:55:21;1.00;90.50
42095;DHT22;27753;55.724;37.612;2024-03-08T14:57:51;1.00;90.60
42095;DHT22;27753;55.724;37.612;2024-03-08T15:00:18;1.00;90.60
42095;DHT22;27753;55.724;37.612;2024-03-08T15:02:55;1.00;90.60
42095;DHT22;27753;55.724;37.612;2024-03-08T15:05:25;1.00;90.70
42095;DHT22;27753;55.724;37.612;2024-03-08T15:07:52;1.10;90.70
42095;DHT22;27753;55.724;37.612;2024-03-08T15:10:19;1.00;90.70
42095;DHT22;27753;55.724;37.612;2024-03-08T15:12:48;1.00;90.80
42095;DHT22;27753;55.724;37.612;2024-03-08T15:15:14;1.00;90.90
42095;DHT22;27753;55.724;37.612;2024-03-08T15:17:44;1.00;91.00
42095;DHT22;27753;55.724;37.612;2024-03-08T15:20:13;1.00;91.10
42095;DHT22;27753;55.724;37.612;2024-03-08T15:22:51;1.00;91.20
42095;DHT22;27753;55.724;37.612;2024-03-08T15:25:24;1.00;91.40
42095;DHT22;27753;55.724;37.612;2024-03-08T15:27:55;1.00;91.40
42095;DHT22;27753;55.724;37.612;2024-03-08T15:30:22;1.00;91.50